sensor_id;sensor_type;location;lat;lon;timestamp;pressure;altitude;pressure_sealevel;temperature;humidity
56671;BME280;42545;50.054;8.306;2023-04-22T00:00:02;99329.22;;;9.11;100.00
56671;BME280;42545;50.054;8.306;2023-04-22T00:02:31;99329.22;;;9.11;100.00
56671;BME280;42545;50.054;8.306;2023-04-22T00:04:58;99325.69;;;9.12;100.00
56671;BME280;42545;50.054;8.306;2023-04-22T00:07:26;99323.97;;;9.13;100.00
56671;BME280;42545;50.054;8.306;2023-04-22T00:09:53;99323.97;;;9.13;100.00
56671;BME280;42545;50.054;8.306;2023-04-22T00:12:20;99308.09;;;9.07;100.00
56671;BME280;42545;50.054;8.306;2023-04-22T00:14:47;99317.81;;;9.14;100.00
56671;BME280;42545;50.054;8.306;2023-04-22T00:17:14;99323.06;;;9.12;100.00
56671;BME280;42545;50.054;8.306;2023-04-22T00:19:40;99327.47;;;9.13;100.00
56671;BME280;42545;50.054;8.306;2023-04-22T00:22:08;99314.28;;;9.10;100.00
56671;BME280;42545;50.054;8.306;2023-04-22T00:24:37;99322.22;;;9.15;100.00
56671;BME280;42545;50.054;8.306;2023-04-22T00:27:03;99321.31;;;9.14;100.00
56671;BME280;42545;50.054;8.306;2023-04-22T00:29:30;99319.59;;;9.15;100.00
56671;BME280;42545;50.054;8.306;2023-04-22T00:31:57;99317.81;;;9.14;100.00
56671;BME280;42545;50.054;8.306;2023-04-22T00:34:23;99308.19;;;9.13;100.00
56671;BME280;42545;50.054;8.306;2023-04-22T00:36:50;99315.16;;;9.12;100.00
56671;BME280;42545;50.054;8.306;2023-04-22T00:39:17;99315.16;;;9.12;100.00
56671;BME280;42545;50.054;8.306;2023-04-22T00:41:45;99316.03;;;9.11;100.00
56671;BME280;42545;50.054;8.306;2023-04-22T00:44:12;99315.19;;;9.14;100.00
56671;BME280;42545;50.054;8.306;2023-04-22T00:46:40;99310.81;;;9.13;100.00
56671;BME280;42545;50.054;8.306;2023-04-22T00:49:07;99301.97;;;9.11;100.00
56671;BME280;42545;50.054;8.306;2023-04-22T00:51:34;99308.16;;;9.14;100.00
56671;BME280;42545;50.054;8.306;2023-04-22T00:54:01;99300.28;;;9.16;100.00
56671;BME280;42545;50.054;8.306;2023-04-22T00:56:29;99304.72;;;9.18;100.00
56671;BME280;42545;50.054;8.306;2023-04-22T00:58:58;99295.97;;;9.21;100.00
56671;BME280;42545;50.054;8.306;2023-04-22T01:01:25;99295.94;;;9.19;100.00
56671;BME280;42545;50.054;8.306;2023-04-22T01:03:52;99303.00;;;9.23;100.00
56671;BME280;42545;50.054;8.306;2023-04-22T01:06:19;99302.13;;;9.24;100.00
56671;BME280;42545;50.054;8.306;2023-04-22T01:08:45;99297.75;;;9.25;100.00
56671;BME280;42545;50.054;8.306;2023-04-22T01:11:13;99299.50;;;9.24;100.00
56671;BME280;42545;50.054;8.306;2023-04-22T01:13:40;99303.00;;;9.23;100.00
56671;BME280;42545;50.054;8.306;2023-04-22T01:16:08;99301.22;;;9.21;100.00
56671;BME280;42545;50.054;8.306;2023-04-22T01:18:36;99299.44;;;9.18;100.00
56671;BME280;42545;50.054;8.306;2023-04-22T01:21:03;99305.56;;;9.17;100.00
56671;BME280;42545;50.054;8.306;2023-04-22T01:23:32;99303.81;;;9.16;100.00
56671;BME280;42545;50.054;8.306;2023-04-22T01:26:00;99301.16;;;9.15;100.00
56671;BME280;42545;50.054;8.306;2023-04-22T01:28:30;99297.69;;;9.17;100.00
56671;BME280;42545;50.054;8.306;2023-04-22T01:30:57;99295.94;;;9.19;100.00
56671;BME280;42545;50.054;8.306;2023-04-22T01:33:24;99296.81;;;9.21;100.00
56671;BME280;42545;50.054;8.306;2023-04-22T01:35:51;99296.00;;;9.24;100.00
56671;BME280;42545;50.054;8.306;2023-04-22T01:38:17;99295.13;;;9.27;100.00
56671;BME280;42545;50.054;8.306;2023-04-22T01:40:46;99297.78;;;9.28;100.00
56671;BME280;42545;50.054;8.306;2023-04-22T01:43:12;99294.28;;;9.29;100.00
56671;BME280;42545;50.054;8.306;2023-04-22T01:45:39;99297.81;;;9.31;100.00
56671;BME280;42545;50.054;8.306;2023-04-22T01:48:06;99296.09;;;9.33;100.00
56671;BME280;42545;50.054;8.306;2023-04-22T01:50:32;99296.97;;;9.35;100.00
56671;BME280;42545;50.054;8.306;2023-04-22T01:52:59;99285.56;;;9.38;100.00
56671;BME280;42545;50.054;8.306;2023-04-22T01:55:26;99290.00;;;9.40;100.00
56671;BME280;42545;50.054;8.306;2023-04-22T01:57:55;99290.94;;;9.46;100.00
56671;BME280;42545;50.054;8.306;2023-04-22T02:00:21;99300.63;;;9.51;100.00
56671;BME280;42545;50.054;8.306;2023-04-22T02:02:48;99301.53;;;9.55;100.00
56671;BME280;42545;50.054;8.306;2023-04-22T02:05:16;99302.44;;;9.60;100.00
56671;BME280;42545;50.054;8.306;2023-04-22T02:07:42;99296.34;;;9.64;100.00
56671;BME280;42545;50.054;8.306;2023-04-22T02:10:10;99298.13;;;9.68;100.00
56671;BME280;42545;50.054;8.306;2023-04-22T02:12:37;99297.28;;;9.72;100.00
56671;BME280;42545;50.054;8.306;2023-04-22T02:15:06;99290.28;;;9.77;99.94
56671;BME280;42545;50.054;8.306;2023-04-22T02:17:32;99293.81;;;9.81;99.47
56671;BME280;42545;50.054;8.306;2023-04-22T02:20:00;99294.72;;;9.85;98.97
56671;BME280;42545;50.054;8.306;2023-04-22T02:22:26;99300.88;;;9.87;98.62
56671;BME280;42545;50.054;8.306;2023-04-22T02:24:53;99295.63;;;9.87;98.30
56671;BME280;42545;50.054;8.306;2023-04-22T02:27:20;99289.47;;;9.85;98.36
56671;BME280;42545;50.054;8.306;2023-04-22T02:29:47;99285.91;;;9.79;98.63
56671;BME280;42545;50.054;8.306;2023-04-22T02:32:15;99290.31;;;9.80;98.45
56671;BME280;42545;50.054;8.306;2023-04-22T02:34:42;99279.75;;;9.77;98.69
56671;BME280;42545;50.054;8.306;2023-04-22T02:37:09;99282.38;;;9.76;98.98
56671;BME280;42545;50.054;8.306;2023-04-22T02:39:35;99279.69;;;9.73;99.13
56671;BME280;42545;50.054;8.306;2023-04-22T02:42:04;99286.72;;;9.71;98.91
56671;BME280;42545;50.054;8.306;2023-04-22T02:44:31;99298.16;;;9.74;98.95
56671;BME280;42545;50.054;8.306;2023-04-22T02:46:58;99302.56;;;9.74;98.95
56671;BME280;42545;50.054;8.306;2023-04-22T02:49:26;99291.97;;;9.68;98.76
56671;BME280;42545;50.054;8.306;2023-04-22T02:51:53;99295.44;;;9.63;98.78
56671;BME280;42545;50.054;8.306;2023-04-22T02:54:20;99298.06;;;9.60;98.87
56671;BME280;42545;50.054;8.306;2023-04-22T02:56:46;99297.16;;;9.55;98.84
56671;BME280;42545;50.054;8.306;2023-04-22T02:59:13;99297.09;;;9.52;99.13
56671;BME280;42545;50.054;8.306;2023-04-22T03:01:40;99298.84;;;9.49;99.33
56671;BME280;42545;50.054;8.306;2023-04-22T03:04:06;99299.72;;;9.48;99.71
56671;BME280;42545;50.054;8.306;2023-04-22T03:06:34;99301.44;;;9.44;99.48
56671;BME280;42545;50.054;8.306;2023-04-22T03:09:01;99305.81;;;9.42;99.89
56671;BME280;42545;50.054;8.306;2023-04-22T03:11:28;99303.16;;;9.39;100.00
56671;BME280;42545;50.054;8.306;2023-04-22T03:13:55;99297.88;;;9.37;100.00
56671;BME280;42545;50.054;8.306;2023-04-22T03:16:23;99294.34;;;9.35;100.00
56671;BME280;42545;50.054;8.306;2023-04-22T03:18:50;99286.38;;;9.31;100.00
56671;BME280;42545;50.054;8.306;2023-04-22T03:21:17;99296.00;;;9.27;100.00
56671;BME280;42545;50.054;8.306;2023-04-22T03:23:45;99296.00;;;9.26;100.00
56671;BME280;42545;50.054;8.306;2023-04-22T03:26:12;99288.06;;;9.22;100.00
56671;BME280;42545;50.054;8.306;2023-04-22T03:28:39;99292.41;;;9.17;100.00
56671;BME280;42545;50.054;8.306;2023-04-22T03:31:06;99294.16;;;9.15;100.00
56671;BME280;42545;50.054;8.306;2023-04-22T03:33:33;99287.09;;;9.14;100.00
56671;BME280;42545;50.054;8.306;2023-04-22T03:36:02;99292.38;;;9.13;100.00
56671;BME280;42545;50.054;8.306;2023-04-22T03:38:29;99299.34;;;9.11;100.00
56671;BME280;42545;50.054;8.306;2023-04-22T03:40:57;99292.31;;;9.07;100.00
56671;BME280;42545;50.054;8.306;2023-04-22T03:43:24;99301.94;;;9.04;100.00
56671;BME280;42545;50.054;8.306;2023-04-22T03:45:51;99292.25;;;9.00;100.00
56671;BME280;42545;50.054;8.306;2023-04-22T03:48:18;99295.72;;;8.98;100.00
56671;BME280;42545;50.054;8.306;2023-04-22T03:50:44;99300.97;;;8.95;100.00
56671;BME280;42545;50.054;8.306;2023-04-22T03:53:11;99293.06;;;8.95;100.00
56671;BME280;42545;50.054;8.306;2023-04-22T03:55:38;99288.69;;;8.95;100.00
56671;BME280;42545;50.054;8.306;2023-04-22T03:58:06;99292.19;;;8.93;100.00
56671;BME280;42545;50.054;8.306;2023-04-22T04:00:33;99289.53;;;8.91;100.00
56671;BME280;42545;50.054;8.306;2023-04-22T04:03:00;99291.25;;;8.91;100.00
56671;BME280;42545;50.054;8.306;2023-04-22T04:05:27;99286.84;;;8.88;100.00
56671;BME280;42545;50.054;8.306;2023-04-22T04:07:54;99293.88;;;8.88;100.00
56671;BME280;42545;50.054;8.306;2023-04-22T04:10:20;99294.72;;;8.87;100.00
56671;BME280;42545;50.054;8.306;2023-04-22T04:12:47;99292.97;;;8.85;100.00
56671;BME280;42545;50.054;8.306;2023-04-22T04:15:16;99290.31;;;8.84;100.00
56671;BME280;42545;50.054;8.306;2023-04-22T04:17:45;99297.34;;;8.83;100.00
56671;BME280;42545;50.054;8.306;2023-04-22T04:20:14;99289.41;;;8.80;100.00
56671;BME280;42545;50.054;8.306;2023-04-22T04:22:41;99296.41;;;8.80;100.00
56671;BME280;42545;50.054;8.306;2023-04-22T04:25:08;99292.88;;;8.78;100.00
56671;BME280;42545;50.054;8.306;2023-04-22T04:27:36;99286.72;;;8.76;100.00
56671;BME280;42545;50.054;8.306;2023-04-22T04:30:07;99282.31;;;8.75;100.00
56671;BME280;42545;50.054;8.306;2023-04-22T04:32:38;99283.19;;;8.75;100.00
56671;BME280;42545;50.054;8.306;2023-04-22T04:35:07;99288.47;;;8.75;100.00
56671;BME280;42545;50.054;8.306;2023-04-22T04:37:34;99291.97;;;8.73;100.00
56671;BME280;42545;50.054;8.306;2023-04-22T04:40:01;99296.34;;;8.74;100.00
56671;BME280;42545;50.054;8.306;2023-04-22T04:42:29;99298.09;;;8.73;100.00
56671;BME280;42545;50.054;8.306;2023-04-22T04:44:57;99283.16;;;8.72;100.00
56671;BME280;42545;50.054;8.306;2023-04-22T04:47:25;99287.53;;;8.72;100.00
56671;BME280;42545;50.054;8.306;2023-04-22T04:49:53;99278.75;;;8.70;100.00
56671;BME280;42545;50.054;8.306;2023-04-22T04:52:22;99274.34;;;8.69;100.00
56671;BME280;42545;50.054;8.306;2023-04-22T04:54:49;99291.91;;;8.70;100.00
56671;BME280;42545;50.054;8.306;2023-04-22T04:57:19;99282.25;;;8.69;100.00
56671;BME280;42545;50.054;8.306;2023-04-22T04:59:48;99281.38;;;8.70;100.00
56671;BME280;42545;50.054;8.306;2023-04-22T05:02:14;99278.75;;;8.68;100.00
56671;BME280;42545;50.054;8.306;2023-04-22T05:04:41;99267.31;;;8.66;100.00
56671;BME280;42545;50.054;8.306;2023-04-22T05:07:09;99259.41;;;8.64;100.00
56671;BME280;42545;50.054;8.306;2023-04-22T05:09:36;99259.38;;;8.63;100.00
56671;BME280;42545;50.054;8.306;2023-04-22T05:12:03;99271.66;;;8.62;100.00
56671;BME280;42545;50.054;8.306;2023-04-22T05:14:32;99270.78;;;8.62;100.00
56671;BME280;42545;50.054;8.306;2023-04-22T05:16:59;99279.56;;;8.62;100.00
56671;BME280;42545;50.054;8.306;2023-04-22T05:19:25;99295.34;;;8.64;100.00
56671;BME280;42545;50.054;8.306;2023-04-22T05:21:52;99294.47;;;8.62;100.00
56671;BME280;42545;50.054;8.306;2023-04-22T05:24:21;99290.00;;;8.58;100.00
56671;BME280;42545;50.054;8.306;2023-04-22T05:26:47;99299.66;;;8.59;100.00
56671;BME280;42545;50.054;8.306;2023-04-22T05:29:14;99299.66;;;8.59;100.00
56671;BME280;42545;50.054;8.306;2023-04-22T05:31:41;99290.84;;;8.54;100.00
56671;BME280;42545;50.054;8.306;2023-04-22T05:34:08;99304.91;;;8.57;100.00
56671;BME280;42545;50.054;8.306;2023-04-22T05:36:36;99303.16;;;8.56;100.00
56671;BME280;42545;50.054;8.306;2023-04-22T05:39:02;99306.69;;;8.58;100.00
56671;BME280;42545;50.054;8.306;2023-04-22T05:41:31;99307.63;;;8.63;100.00
56671;BME280;42545;50.054;8.306;2023-04-22T05:43:58;99312.09;;;8.72;100.00
56671;BME280;42545;50.054;8.306;2023-04-22T05:46:25;99320.09;;;8.81;100.00
56671;BME280;42545;50.054;8.306;2023-04-22T05:48:51;99319.38;;;8.95;100.00
56671;BME280;42545;50.054;8.306;2023-04-22T05:51:20;99314.19;;;9.01;100.00
56671;BME280;42545;50.054;8.306;2023-04-22T05:53:47;99312.50;;;9.11;100.00
56671;BME280;42545;50.054;8.306;2023-04-22T05:56:14;99317.00;;;9.19;100.00
56671;BME280;42545;50.054;8.306;2023-04-22T05:58:43;99306.59;;;9.33;100.00
56671;BME280;42545;50.054;8.306;2023-04-22T06:01:09;99318.13;;;9.46;100.00
56671;BME280;42545;50.054;8.306;2023-04-22T06:03:36;99319.16;;;9.65;100.00
56671;BME280;42545;50.054;8.306;2023-04-22T06:06:03;99316.63;;;9.77;100.00
56671;BME280;42545;50.054;8.306;2023-04-22T06:08:30;99319.50;;;10.08;100.00
56671;BME280;42545;50.054;8.306;2023-04-22T06:10:57;99303.78;;;10.28;100.00
56671;BME280;42545;50.054;8.306;2023-04-22T06:13:24;99301.25;;;10.39;100.00
56671;BME280;42545;50.054;8.306;2023-04-22T06:15:53;99313.59;;;10.48;100.00
56671;BME280;42545;50.054;8.306;2023-04-22T06:18:20;99309.22;;;10.53;100.00
56671;BME280;42545;50.054;8.306;2023-04-22T06:20:47;99303.09;;;10.57;100.00
56671;BME280;42545;50.054;8.306;2023-04-22T06:23:14;99300.44;;;10.57;100.00
56671;BME280;42545;50.054;8.306;2023-04-22T06:25:41;99302.19;;;10.58;99.92
56671;BME280;42545;50.054;8.306;2023-04-22T06:28:11;99297.81;;;10.60;100.00
56671;BME280;42545;50.054;8.306;2023-04-22T06:30:39;99303.09;;;10.63;100.00
56671;BME280;42545;50.054;8.306;2023-04-22T06:33:08;99307.50;;;10.66;100.00
56671;BME280;42545;50.054;8.306;2023-04-22T06:35:34;99313.69;;;10.71;100.00
56671;BME280;42545;50.054;8.306;2023-04-22T06:38:01;99304.91;;;10.75;100.00
56671;BME280;42545;50.054;8.306;2023-04-22T06:40:28;99307.56;;;10.81;100.00
56671;BME280;42545;50.054;8.306;2023-04-22T06:42:54;99304.06;;;10.87;100.00
56671;BME280;42545;50.054;8.306;2023-04-22T06:45:21;99311.16;;;10.97;100.00
56671;BME280;42545;50.054;8.306;2023-04-22T06:47:50;99312.91;;;11.07;100.00
56671;BME280;42545;50.054;8.306;2023-04-22T06:50:19;99307.66;;;11.16;100.00
56671;BME280;42545;50.054;8.306;2023-04-22T06:52:46;99302.38;;;11.24;100.00
56671;BME280;42545;50.054;8.306;2023-04-22T06:55:13;99298.00;;;11.31;100.00
56671;BME280;42545;50.054;8.306;2023-04-22T06:57:40;99293.63;;;11.38;100.00
56671;BME280;42545;50.054;8.306;2023-04-22T07:00:10;99293.59;;;11.44;99.96
56671;BME280;42545;50.054;8.306;2023-04-22T07:02:37;99295.38;;;11.49;98.14
56671;BME280;42545;50.054;8.306;2023-04-22T07:05:05;99286.56;;;11.53;96.76
56671;BME280;42545;50.054;8.306;2023-04-22T07:07:33;99300.66;;;11.63;96.18
56671;BME280;42545;50.054;8.306;2023-04-22T07:09:59;99294.47;;;11.75;96.00
56671;BME280;42545;50.054;8.306;2023-04-22T07:12:26;99296.25;;;11.87;94.68
56671;BME280;42545;50.054;8.306;2023-04-22T07:14:53;99298.00;;;11.97;94.61
56671;BME280;42545;50.054;8.306;2023-04-22T07:17:19;99298.88;;;12.13;93.57
56671;BME280;42545;50.054;8.306;2023-04-22T07:19:46;99294.44;;;12.29;93.88
56671;BME280;42545;50.054;8.306;2023-04-22T07:22:13;99297.91;;;12.49;92.89
56671;BME280;42545;50.054;8.306;2023-04-22T07:24:41;99290.78;;;12.64;91.66
56671;BME280;42545;50.054;8.306;2023-04-22T07:27:08;99288.91;;;12.83;91.07
56671;BME280;42545;50.054;8.306;2023-04-22T07:29:34;99284.41;;;13.02;89.80
56671;BME280;42545;50.054;8.306;2023-04-22T07:32:01;99281.66;;;13.16;88.14
56671;BME280;42545;50.054;8.306;2023-04-22T07:34:28;99276.28;;;13.28;86.21
56671;BME280;42545;50.054;8.306;2023-04-22T07:36:55;99276.25;;;13.42;85.64
56671;BME280;42545;50.054;8.306;2023-04-22T07:39:23;99276.13;;;13.54;85.17
56671;BME280;42545;50.054;8.306;2023-04-22T07:41:51;99280.47;;;13.64;84.52
56671;BME280;42545;50.054;8.306;2023-04-22T07:44:22;99283.03;;;13.72;83.64
56671;BME280;42545;50.054;8.306;2023-04-22T07:46:49;99281.25;;;13.74;83.25
56671;BME280;42545;50.054;8.306;2023-04-22T07:49:16;99278.56;;;13.80;83.67
56671;BME280;42545;50.054;8.306;2023-04-22T07:51:45;99279.38;;;13.87;82.58
56671;BME280;42545;50.054;8.306;2023-04-22T07:54:11;99277.56;;;13.92;82.12
56671;BME280;42545;50.054;8.306;2023-04-22T07:56:38;99274.75;;;14.09;82.81
56671;BME280;42545;50.054;8.306;2023-04-22T07:59:09;99278.94;;;14.30;81.26
56671;BME280;42545;50.054;8.306;2023-04-22T08:01:35;99271.72;;;14.40;80.23
56671;BME280;42545;50.054;8.306;2023-04-22T08:04:02;99279.47;;;14.60;79.51
56671;BME280;42545;50.054;8.306;2023-04-22T08:06:28;99268.59;;;14.80;79.37
56671;BME280;42545;50.054;8.306;2023-04-22T08:08:56;99287.75;;;15.04;78.65
56671;BME280;42545;50.054;8.306;2023-04-22T08:11:22;99272.50;;;15.19;76.42
56671;BME280;42545;50.054;8.306;2023-04-22T08:13:49;99268.72;;;15.33;75.72
56671;BME280;42545;50.054;8.306;2023-04-22T08:16:17;99278.31;;;15.43;74.08
56671;BME280;42545;50.054;8.306;2023-04-22T08:18:44;99273.69;;;15.56;74.26
56671;BME280;42545;50.054;8.306;2023-04-22T08:21:11;99277.22;;;15.56;73.12
56671;BME280;42545;50.054;8.306;2023-04-22T08:23:38;99273.72;;;15.54;72.37
56671;BME280;42545;50.054;8.306;2023-04-22T08:26:05;99277.22;;;15.56;73.21
56671;BME280;42545;50.054;8.306;2023-04-22T08:28:32;99270.06;;;15.60;73.32
56671;BME280;42545;50.054;8.306;2023-04-22T08:31:00;99263.91;;;15.58;73.05
56671;BME280;42545;50.054;8.306;2023-04-22T08:33:28;99270.00;;;15.66;72.33
56671;BME280;42545;50.054;8.306;2023-04-22T08:35:55;99272.53;;;15.74;71.93
56671;BME280;42545;50.054;8.306;2023-04-22T08:38:22;99260.00;;;15.81;71.66
56671;BME280;42545;50.054;8.306;2023-04-22T08:40:49;99268.75;;;15.87;72.11
56671;BME280;42545;50.054;8.306;2023-04-22T08:43:17;99267.75;;;15.93;71.39
56671;BME280;42545;50.054;8.306;2023-04-22T08:45:44;99264.09;;;15.99;70.72
56671;BME280;42545;50.054;8.306;2023-04-22T08:48:12;99264.84;;;16.07;71.38
56671;BME280;42545;50.054;8.306;2023-04-22T08:50:40;99258.59;;;16.09;70.36
56671;BME280;42545;50.054;8.306;2023-04-22T08:53:07;99259.44;;;16.11;70.85
56671;BME280;42545;50.054;8.306;2023-04-22T08:55:35;99262.88;;;16.18;69.98
56671;BME280;42545;50.054;8.306;2023-04-22T08:58:04;99261.88;;;16.22;69.96
56671;BME280;42545;50.054;8.306;2023-04-22T09:00:32;99257.31;;;16.30;70.29
56671;BME280;42545;50.054;8.306;2023-04-22T09:03:02;99258.00;;;16.40;71.01
56671;BME280;42545;50.054;8.306;2023-04-22T09:05:32;99262.28;;;16.47;70.36
56671;BME280;42545;50.054;8.306;2023-04-22T09:08:01;99255.28;;;16.43;69.62
56671;BME280;42545;50.054;8.306;2023-04-22T09:10:28;99258.03;;;16.39;70.15
56671;BME280;42545;50.054;8.306;2023-04-22T09:12:56;99256.28;;;16.38;70.38
56671;BME280;42545;50.054;8.306;2023-04-22T09:15:23;99249.22;;;16.35;70.75
56671;BME280;42545;50.054;8.306;2023-04-22T09:17:52;99251.91;;;16.33;71.47
56671;BME280;42545;50.054;8.306;2023-04-22T09:20:24;99251.06;;;16.31;71.81
56671;BME280;42545;50.054;8.306;2023-04-22T09:22:52;99246.56;;;16.35;71.39
56671;BME280;42545;50.054;8.306;2023-04-22T09:25:24;99237.69;;;16.36;71.42
56671;BME280;42545;50.054;8.306;2023-04-22T09:27:52;99248.16;;;16.44;71.67
56671;BME280;42545;50.054;8.306;2023-04-22T09:30:23;99249.63;;;16.59;72.02
56671;BME280;42545;50.054;8.306;2023-04-22T09:32:53;99240.38;;;16.77;72.18
56671;BME280;42545;50.054;8.306;2023-04-22T09:35:25;99245.31;;;16.95;70.97
56671;BME280;42545;50.054;8.306;2023-04-22T09:37:53;99240.53;;;17.09;70.32
56671;BME280;42545;50.054;8.306;2023-04-22T09:40:22;99237.56;;;17.23;69.65
56671;BME280;42545;50.054;8.306;2023-04-22T09:42:50;99241.78;;;17.32;68.49
56671;BME280;42545;50.054;8.306;2023-04-22T09:45:27;99251.13;;;17.50;68.31
56671;BME280;42545;50.054;8.306;2023-04-22T09:47:56;99248.00;;;17.68;68.17
56671;BME280;42545;50.054;8.306;2023-04-22T09:50:26;99243.28;;;17.80;66.20
56671;BME280;42545;50.054;8.306;2023-04-22T09:52:55;99249.31;;;17.88;66.10
56671;BME280;42545;50.054;8.306;2023-04-22T09:55:25;99245.44;;;18.00;66.69
56671;BME280;42545;50.054;8.306;2023-04-22T09:57:53;99231.97;;;18.04;65.74
56671;BME280;42545;50.054;8.306;2023-04-22T10:00:21;99235.31;;;18.13;64.75
56671;BME280;42545;50.054;8.306;2023-04-22T10:02:49;99229.00;;;18.15;65.70
56671;BME280;42545;50.054;8.306;2023-04-22T10:05:16;99227.75;;;18.27;66.62
56671;BME280;42545;50.054;8.306;2023-04-22T10:07:43;99233.81;;;18.34;64.52
56671;BME280;42545;50.054;8.306;2023-04-22T10:10:10;99231.94;;;18.37;64.33
56671;BME280;42545;50.054;8.306;2023-04-22T10:12:38;99220.19;;;18.43;63.85
56671;BME280;42545;50.054;8.306;2023-04-22T10:15:06;99217.38;;;18.49;63.36
56671;BME280;42545;50.054;8.306;2023-04-22T10:17:37;99217.25;;;18.52;63.62
56671;BME280;42545;50.054;8.306;2023-04-22T10:20:06;99211.16;;;18.47;63.01
56671;BME280;42545;50.054;8.306;2023-04-22T10:22:38;99216.47;;;18.49;63.26
56671;BME280;42545;50.054;8.306;2023-04-22T10:25:10;99203.84;;;18.54;63.50
56671;BME280;42545;50.054;8.306;2023-04-22T10:27:39;99207.34;;;18.56;61.48
56671;BME280;42545;50.054;8.306;2023-04-22T10:30:08;99205.44;;;18.61;61.97
56671;BME280;42545;50.054;8.306;2023-04-22T10:32:35;99209.38;;;18.77;62.64
56671;BME280;42545;50.054;8.306;2023-04-22T10:35:13;99201.97;;;18.87;61.01
56671;BME280;42545;50.054;8.306;2023-04-22T10:37:41;99207.69;;;19.05;60.54
56671;BME280;42545;50.054;8.306;2023-04-22T10:40:11;99211.69;;;19.18;59.53
56671;BME280;42545;50.054;8.306;2023-04-22T10:42:47;99207.09;;;19.23;58.44
56671;BME280;42545;50.054;8.306;2023-04-22T10:45:18;99200.91;;;19.21;58.17
56671;BME280;42545;50.054;8.306;2023-04-22T10:47:49;99198.19;;;19.23;58.08
56671;BME280;42545;50.054;8.306;2023-04-22T10:50:18;99192.69;;;19.27;58.89
56671;BME280;42545;50.054;8.306;2023-04-22T10:52:48;99192.31;;;19.38;59.24
56671;BME280;42545;50.054;8.306;2023-04-22T10:55:19;99190.22;;;19.48;58.89
56671;BME280;42545;50.054;8.306;2023-04-22T10:57:49;99182.00;;;19.54;59.00
56671;BME280;42545;50.054;8.306;2023-04-22T11:00:27;99183.53;;;19.61;58.05
56671;BME280;42545;50.054;8.306;2023-04-22T11:03:08;99175.19;;;19.70;58.07
56671;BME280;42545;50.054;8.306;2023-04-22T11:05:36;99172.44;;;19.72;57.42
56671;BME280;42545;50.054;8.306;2023-04-22T11:08:07;99175.78;;;19.78;57.08
56671;BME280;42545;50.054;8.306;2023-04-22T11:10:36;99174.84;;;19.81;56.00
56671;BME280;42545;50.054;8.306;2023-04-22T11:13:07;99179.19;;;19.84;57.31
56671;BME280;42545;50.054;8.306;2023-04-22T11:15:36;99168.34;;;19.88;56.32
56671;BME280;42545;50.054;8.306;2023-04-22T11:18:08;99170.81;;;19.93;56.78
56671;BME280;42545;50.054;8.306;2023-04-22T11:20:35;99164.56;;;19.94;55.63
56671;BME280;42545;50.054;8.306;2023-04-22T11:23:02;99171.59;;;19.96;55.28
56671;BME280;42545;50.054;8.306;2023-04-22T11:25:30;99160.78;;;20.00;55.15
56671;BME280;42545;50.054;8.306;2023-04-22T11:27:57;99165.03;;;20.05;54.69
56671;BME280;42545;50.054;8.306;2023-04-22T11:30:28;99163.03;;;20.12;55.25
56671;BME280;42545;50.054;8.306;2023-04-22T11:32:57;99167.78;;;20.27;55.51
56671;BME280;42545;50.054;8.306;2023-04-22T11:35:26;99163.50;;;20.47;54.92
56671;BME280;42545;50.054;8.306;2023-04-22T11:37:54;99168.50;;;20.56;53.33
56671;BME280;42545;50.054;8.306;2023-04-22T11:40:23;99162.03;;;20.62;52.30
56671;BME280;42545;50.054;8.306;2023-04-22T11:42:50;99160.06;;;20.67;51.76
56671;BME280;42545;50.054;8.306;2023-04-22T11:45:19;99163.34;;;20.73;50.59
56671;BME280;42545;50.054;8.306;2023-04-22T11:47:48;99165.63;;;20.84;50.56
56671;BME280;42545;50.054;8.306;2023-04-22T11:50:16;99162.66;;;20.92;49.33
56671;BME280;42545;50.054;8.306;2023-04-22T11:52:46;99163.13;;;21.02;49.78
56671;BME280;42545;50.054;8.306;2023-04-22T11:55:14;99161.09;;;21.08;48.88
56671;BME280;42545;50.054;8.306;2023-04-22T11:57:43;99150.03;;;21.16;49.19
56671;BME280;42545;50.054;8.306;2023-04-22T12:00:12;99148.09;;;21.20;46.16
56671;BME280;42545;50.054;8.306;2023-04-22T12:02:41;99146.84;;;21.28;47.24
56671;BME280;42545;50.054;8.306;2023-04-22T12:05:11;99150.88;;;21.39;46.93
56671;BME280;42545;50.054;8.306;2023-04-22T12:07:38;99151.41;;;21.48;47.32
56671;BME280;42545;50.054;8.306;2023-04-22T12:10:06;99155.34;;;21.60;46.93
56671;BME280;42545;50.054;8.306;2023-04-22T12:12:33;99152.94;;;21.54;46.86
56671;BME280;42545;50.054;8.306;2023-04-22T12:15:11;99153.06;;;21.51;47.03
56671;BME280;42545;50.054;8.306;2023-04-22T12:17:40;99145.94;;;21.50;47.65
56671;BME280;42545;50.054;8.306;2023-04-22T12:20:11;99141.84;;;21.41;47.05
56671;BME280;42545;50.054;8.306;2023-04-22T12:22:38;99140.19;;;21.37;47.49
56671;BME280;42545;50.054;8.306;2023-04-22T12:25:05;99140.75;;;21.25;47.19
56671;BME280;42545;50.054;8.306;2023-04-22T12:27:32;99148.50;;;21.10;48.12
56671;BME280;42545;50.054;8.306;2023-04-22T12:30:02;99149.03;;;20.97;48.86
56671;BME280;42545;50.054;8.306;2023-04-22T12:32:29;99145.81;;;20.88;49.34
56671;BME280;42545;50.054;8.306;2023-04-22T12:34:56;99146.78;;;20.86;49.37
56671;BME280;42545;50.054;8.306;2023-04-22T12:37:24;99144.16;;;20.84;49.54
56671;BME280;42545;50.054;8.306;2023-04-22T12:39:51;99149.41;;;20.87;49.77
56671;BME280;42545;50.054;8.306;2023-04-22T12:42:17;99144.25;;;20.83;49.76
56671;BME280;42545;50.054;8.306;2023-04-22T12:44:44;99139.13;;;20.77;49.92
56671;BME280;42545;50.054;8.306;2023-04-22T12:47:11;99143.78;;;20.71;49.47
56671;BME280;42545;50.054;8.306;2023-04-22T12:49:37;99140.56;;;20.63;48.44
56671;BME280;42545;50.054;8.306;2023-04-22T12:52:04;99145.22;;;20.57;49.04
56671;BME280;42545;50.054;8.306;2023-04-22T12:54:34;99133.97;;;20.48;48.77
56671;BME280;42545;50.054;8.306;2023-04-22T12:57:01;99134.66;;;20.53;49.64
56671;BME280;42545;50.054;8.306;2023-04-22T12:59:27;99128.28;;;20.56;49.26
56671;BME280;42545;50.054;8.306;2023-04-22T13:01:54;99134.41;;;20.60;50.27